^^
Your Local Weather - Clay, NY Station Historical Data
Daily Summary for February 8, 2018 Units:  English    Metric   Both
« Previous Day
Next Day »
Daily Weekly Monthly Yearly Custom
  High: Low: Average:
Temperature: 23.1 °F 15.5 °F 19.5 °F
Dew Point: 19.0 °F 9.6 °F 15.3 °F
Humidity: 91% 74% 84%
Wind Speed: 5.0mph 0.0mph 1.5mph
Wind Gust: 10.0mph - -
Wind- - WSW
Pressure: 30.41 in 30.22 in -
Precipitation: 0.01 in    
Historical Graphs
 
 
Tabular Data for February 8, 2018
Time Temperature Dew Point Pressure Wind Wind Speed Wind Gust Humidity Rainfall Rate (Hourly) solar
00:02 20.7 °F 18.5 °F 30.22 in Calm     91% 0.00 in 0 W/m2
00:08 20.8 °F 18.6 °F 30.23 in Calm     91% 0.00 in 0 W/m2
00:14 20.8 °F 18.6 °F 30.23 in Calm   1.0 mph 91% 0.00 in 0 W/m2
00:20 20.8 °F 18.6 °F 30.23 in Calm     91% 0.00 in 0 W/m2
00:26 20.9 °F 18.7 °F 30.23 in Calm     91% 0.00 in 0 W/m2
00:32 20.9 °F 18.7 °F 30.23 in Calm     91% 0.00 in 0 W/m2
00:38 21.0 °F 18.8 °F 30.23 in Calm   1.0 mph 91% 0.00 in 0 W/m2
00:44 21.0 °F 18.8 °F 30.23 in Calm     91% 0.00 in 0 W/m2
00:50 21.1 °F 18.9 °F 30.23 in Calm     91% 0.00 in 0 W/m2
00:56 21.1 °F 18.9 °F 30.23 in Calm     91% 0.00 in 0 W/m2
01:02 21.1 °F 18.9 °F 30.23 in Calm   2.0 mph 91% 0.00 in 0 W/m2
01:08 20.8 °F 18.6 °F 30.23 in NE 1.0 mph 2.0 mph 91% 0.00 in 0 W/m2
01:14 20.4 °F 18.2 °F 30.23 in NNE 1.0 mph 2.0 mph 91% 0.00 in 0 W/m2
01:20 20.0 °F 17.8 °F 30.24 in NNW 1.0 mph 1.0 mph 91% 0.00 in 0 W/m2
01:26 19.8 °F 17.6 °F 30.24 in Calm   1.0 mph 91% 0.00 in 0 W/m2
01:32 19.5 °F 17.0 °F 30.23 in NNE 1.0 mph 1.0 mph 90% 0.00 in 0 W/m2
01:38 19.2 °F 17.0 °F 30.23 in NNE 1.0 mph 3.0 mph 91% 0.00 in 0 W/m2
01:44 18.9 °F 16.5 °F 30.23 in NNE 1.0 mph 1.0 mph 90% 0.00 in 0 W/m2
01:50 18.7 °F 16.3 °F 30.23 in Calm   2.0 mph 90% 0.00 in 0 W/m2
01:56 18.5 °F 16.1 °F 30.24 in Calm   2.0 mph 90% 0.00 in 0 W/m2
02:02 18.2 °F 15.8 °F 30.24 in Calm     90% 0.00 in 0 W/m2
02:08 17.9 °F 15.5 °F 30.24 in Calm     90% 0.00 in 0 W/m2
02:14 17.8 °F 15.4 °F 30.24 in Calm     90% 0.00 in 0 W/m2
02:20 17.6 °F 15.2 °F 30.24 in Calm     90% 0.00 in 0 W/m2
02:26 17.5 °F 15.1 °F 30.24 in Calm     90% 0.00 in 0 W/m2
02:32 17.5 °F 15.1 °F 30.25 in Calm     90% 0.00 in 0 W/m2
02:38 17.5 °F 15.1 °F 30.25 in Calm     90% 0.00 in 0 W/m2
02:44 17.5 °F 15.1 °F 30.25 in Calm     90% 0.00 in 0 W/m2
02:50 17.5 °F 15.1 °F 30.25 in Calm     90% 0.00 in 0 W/m2
02:56 17.6 °F 15.2 °F 30.25 in Calm     90% 0.00 in 0 W/m2
03:02 17.6 °F 15.2 °F 30.25 in Calm     90% 0.00 in 0 W/m2
03:08 17.6 °F 15.2 °F 30.25 in Calm     90% 0.00 in 0 W/m2
03:14 17.6 °F 15.2 °F 30.25 in Calm     90% 0.00 in 0 W/m2
03:20 17.6 °F 15.2 °F 30.25 in Calm     90% 0.00 in 0 W/m2
03:26 17.5 °F 15.1 °F 30.26 in Calm     90% 0.00 in 0 W/m2
03:32 17.5 °F 15.1 °F 30.26 in Calm     90% 0.00 in 0 W/m2
03:38 17.4 °F 15.0 °F 30.25 in Calm     90% 0.00 in 0 W/m2
03:44 17.4 °F 15.0 °F 30.25 in Calm     90% 0.00 in 0 W/m2
03:50 17.3 °F 14.9 °F 30.25 in Calm     90% 0.00 in 0 W/m2
03:56 17.3 °F 14.9 °F 30.26 in Calm     90% 0.00 in 0 W/m2
04:02 17.2 °F 14.8 °F 30.26 in Calm     90% 0.00 in 0 W/m2
04:08 17.3 °F 14.9 °F 30.26 in Calm     90% 0.00 in 0 W/m2
04:16 17.2 °F 14.8 °F 30.26 in Calm     90% 0.00 in 0 W/m2
04:22 17.2 °F 14.8 °F 30.26 in Calm     90% 0.00 in 0 W/m2
04:28 17.2 °F 14.8 °F 30.27 in Calm     90% 0.00 in 0 W/m2
04:34 17.2 °F 14.8 °F 30.27 in Calm     90% 0.00 in 0 W/m2
04:40 17.1 °F 14.7 °F 30.27 in Calm     90% 0.00 in 0 W/m2
04:46 17.0 °F 14.6 °F 30.27 in Calm     90% 0.00 in 0 W/m2
04:52 17.0 °F 14.6 °F 30.27 in Calm     90% 0.00 in 0 W/m2
04:58 17.0 °F 14.6 °F 30.28 in Calm     90% 0.00 in 0 W/m2
05:04 16.9 °F 14.5 °F 30.28 in Calm     90% 0.00 in 0 W/m2
05:10 16.9 °F 14.5 °F 30.28 in Calm     90% 0.00 in 0 W/m2
05:16 16.9 °F 14.5 °F 30.28 in Calm     90% 0.00 in 0 W/m2
05:22 16.8 °F 14.4 °F 30.29 in Calm     90% 0.00 in 0 W/m2
05:28 16.8 °F 14.4 °F 30.29 in Calm     90% 0.00 in 0 W/m2
05:34 16.8 °F 14.4 °F 30.29 in Calm     90% 0.00 in 0 W/m2
05:40 16.7 °F 14.3 °F 30.29 in Calm     90% 0.00 in 0 W/m2
05:46 16.6 °F 14.2 °F 30.29 in Calm     90% 0.00 in 0 W/m2
05:52 16.5 °F 14.1 °F 30.29 in Calm     90% 0.00 in 0 W/m2
05:58 16.5 °F 14.1 °F 30.30 in Calm     90% 0.00 in 0 W/m2
06:04 16.5 °F 14.1 °F 30.30 in Calm     90% 0.00 in 0 W/m2
06:10 16.8 °F 14.4 °F 30.30 in Calm     90% 0.00 in 0 W/m2
06:16 16.9 °F 14.5 °F 30.30 in Calm     90% 0.00 in 0 W/m2
06:22 16.9 °F 14.5 °F 30.30 in Calm     90% 0.00 in 0 W/m2
06:28 17.0 °F 14.6 °F 30.30 in Calm     90% 0.00 in 0 W/m2
06:34 17.2 °F 14.8 °F 30.30 in Calm   1.0 mph 90% 0.00 in 0 W/m2
06:40 17.5 °F 15.1 °F 30.31 in Calm     90% 0.00 in 0 W/m2
06:46 17.6 °F 15.2 °F 30.31 in Calm     90% 0.00 in 0 W/m2
06:52 17.7 °F 15.3 °F 30.31 in Calm   1.0 mph 90% 0.00 in 0 W/m2
06:58 17.8 °F 15.4 °F 30.31 in Calm   1.0 mph 90% 0.00 in 0 W/m2
07:04 17.9 °F 15.5 °F 30.32 in Calm     90% 0.00 in 0 W/m2
07:10 17.9 °F 15.5 °F 30.32 in Calm     90% 0.00 in 0 W/m2
07:16 17.9 °F 15.5 °F 30.32 in Calm     90% 0.00 in 0 W/m2
07:22 18.0 °F 15.6 °F 30.32 in Calm     90% 0.00 in 0 W/m2
07:28 17.9 °F 15.5 °F 30.32 in Calm     90% 0.00 in 5 W/m2
07:34 17.9 °F 15.5 °F 30.32 in Calm     90% 0.00 in 7 W/m2
07:40 17.9 °F 15.5 °F 30.33 in Calm     90% 0.00 in 9 W/m2
07:46 18.0 °F 15.6 °F 30.33 in Calm     90% 0.00 in 12 W/m2
07:52 18.1 °F 15.7 °F 30.33 in Calm     90% 0.00 in 14 W/m2
07:58 18.2 °F 15.8 °F 30.33 in Calm     90% 0.00 in 12 W/m2
08:04 18.3 °F 15.9 °F 30.33 in Calm     90% 0.00 in 16 W/m2
08:10 18.4 °F 16.0 °F 30.34 in Calm     90% 0.00 in 18 W/m2
08:16 18.5 °F 16.1 °F 30.34 in Calm     90% 0.00 in 26 W/m2
08:22 18.6 °F 16.2 °F 30.34 in Calm   1.0 mph 90% 0.00 in 32 W/m2
08:28 18.8 °F 16.4 °F 30.35 in Calm   1.0 mph 90% 0.00 in 42 W/m2
08:34 18.9 °F 16.5 °F 30.35 in Calm   1.0 mph 90% 0.00 in 49 W/m2
08:40 19.1 °F 16.7 °F 30.35 in Calm   2.0 mph 90% 0.00 in 46 W/m2
08:46 19.1 °F 16.7 °F 30.35 in Calm   2.0 mph 90% 0.00 in 53 W/m2
08:52 19.3 °F 16.8 °F 30.35 in Calm   1.0 mph 90% 0.00 in 63 W/m2
08:58 19.4 °F 16.9 °F 30.35 in Calm   2.0 mph 90% 0.00 in 63 W/m2
09:04 19.5 °F 17.0 °F 30.35 in WNW 1.0 mph 3.0 mph 90% 0.00 in 62 W/m2
09:10 19.5 °F 17.0 °F 30.35 in WNW 1.0 mph 1.0 mph 90% 0.00 in 62 W/m2
09:16 19.8 °F 17.3 °F 30.35 in Calm   1.0 mph 90% 0.00 in 63 W/m2
09:22 19.9 °F 17.4 °F 30.35 in West 1.0 mph 1.0 mph 90% 0.00 in 81 W/m2
09:28 20.2 °F 17.7 °F 30.35 in West 1.0 mph 1.0 mph 90% 0.00 in 47 W/m2
09:34 20.1 °F 17.4 °F 30.35 in WNW 1.0 mph 2.0 mph 89% 0.00 in 39 W/m2
09:40 19.9 °F 17.2 °F 30.35 in WNW 1.0 mph 1.0 mph 89% 0.00 in 76 W/m2
09:46 20.0 °F 17.3 °F 30.36 in Calm   1.0 mph 89% 0.00 in 77 W/m2
09:52 20.3 °F 17.6 °F 30.36 in West 1.0 mph 1.0 mph 89% 0.00 in 83 W/m2
09:58 20.6 °F 17.9 °F 30.36 in West 1.0 mph 1.0 mph 89% 0.00 in 86 W/m2
10:04 20.7 °F 17.7 °F 30.35 in WSW 1.0 mph 3.0 mph 88% 0.00 in 88 W/m2
10:10 20.6 °F 17.6 °F 30.36 in WSW 2.0 mph 2.0 mph 88% 0.00 in 77 W/m2
10:16 20.6 °F 17.6 °F 30.35 in West 2.0 mph 3.0 mph 88% 0.00 in 76 W/m2
10:22 20.6 °F 17.3 °F 30.36 in WSW 2.0 mph 2.0 mph 87% 0.00 in 93 W/m2
10:28 20.8 °F 17.5 °F 30.36 in WSW 2.0 mph 4.0 mph 87% 0.00 in 93 W/m2
10:34 21.0 °F 17.7 °F 30.36 in WSW 2.0 mph 3.0 mph 87% 0.00 in 98 W/m2
10:40 21.3 °F 18.0 °F 30.36 in WNW 1.0 mph 2.0 mph 87% 0.00 in 111 W/m2
10:46 21.6 °F 18.6 °F 30.36 in SW 2.0 mph 2.0 mph 88% 0.00 in 116 W/m2
10:52 21.7 °F 18.4 °F 30.36 in WSW 2.0 mph 4.0 mph 87% 0.00 in 121 W/m2
10:58 21.5 °F 18.2 °F 30.36 in WSW 3.0 mph 4.0 mph 87% 0.00 in 130 W/m2
11:04 21.6 °F 18.3 °F 30.36 in West 2.0 mph 3.0 mph 87% 0.00 in 132 W/m2
11:10 21.8 °F 18.5 °F 30.36 in SW 2.0 mph 2.0 mph 87% 0.00 in 79 W/m2
11:16 21.4 °F 17.9 °F 30.36 in WSW 3.0 mph 4.0 mph 86% 0.00 in 70 W/m2
11:22 21.0 °F 17.5 °F 30.36 in WSW 2.0 mph 2.0 mph 86% 0.00 in 114 W/m2
11:28 21.1 °F 17.8 °F 30.36 in SW 1.0 mph 2.0 mph 87% 0.00 in 121 W/m2
11:34 21.1 °F 17.8 °F 30.36 in West 2.0 mph 4.0 mph 87% 0.00 in 137 W/m2
11:40 21.0 °F 17.7 °F 30.35 in West 2.0 mph 2.0 mph 87% 0.00 in 77 W/m2
11:46 21.1 °F 17.8 °F 30.35 in West 1.0 mph 2.0 mph 87% 0.00 in 176 W/m2
11:52 21.1 °F 17.8 °F 30.35 in West 1.0 mph 2.0 mph 87% 0.00 in 109 W/m2
11:58 21.2 °F 17.9 °F 30.35 in West 1.0 mph 2.0 mph 87% 0.00 in 353 W/m2
12:06 21.5 °F 18.2 °F 30.34 in West 1.0 mph 1.0 mph 87% 0.00 in 107 W/m2
12:12 21.5 °F 18.2 °F 30.34 in West 1.0 mph 1.0 mph 87% 0.00 in 137 W/m2
12:18 21.8 °F 18.5 °F 30.34 in West 1.0 mph 1.0 mph 87% 0.00 in 475 W/m2
12:24 22.3 °F 19.0 °F 30.33 in WSW 1.0 mph 4.0 mph 87% 0.00 in 179 W/m2
12:30 22.2 °F 18.4 °F 30.33 in WSW 2.0 mph 2.0 mph 85% 0.00 in 188 W/m2
12:36 22.3 °F 18.5 °F 30.33 in WSW 2.0 mph 2.0 mph 85% 0.00 in 547 W/m2
12:42 22.7 °F 18.9 °F 30.32 in SSE 2.0 mph 4.0 mph 85% 0.00 in 155 W/m2
12:48 22.1 °F 18.0 °F 30.32 in WSW 3.0 mph 5.0 mph 84% 0.00 in 151 W/m2
12:54 22.0 °F 17.6 °F 30.32 in SW 3.0 mph 5.0 mph 83% 0.00 in 183 W/m2
13:00 21.7 °F 17.3 °F 30.32 in West 3.0 mph 5.0 mph 83% 0.00 in 246 W/m2
13:06 21.7 °F 17.1 °F 30.32 in WSW 3.0 mph 5.0 mph 82% 0.00 in 671 W/m2
13:12 22.2 °F 17.8 °F 30.32 in WSW 3.0 mph 3.0 mph 83% 0.00 in 246 W/m2
13:18 22.7 °F 18.0 °F 30.31 in WSW 3.0 mph 4.0 mph 82% 0.00 in 278 W/m2
13:24 22.7 °F 18.0 °F 30.30 in South 3.0 mph 5.0 mph 82% 0.00 in 202 W/m2
13:30 22.5 °F 17.5 °F 30.30 in SW 3.0 mph 3.0 mph 81% 0.00 in 239 W/m2
13:36 22.9 °F 17.9 °F 30.30 in WSW 3.0 mph 4.0 mph 81% 0.00 in 754 W/m2
13:42 23.1 °F 18.1 °F 30.30 in WSW 3.0 mph 3.0 mph 81% 0.00 in 258 W/m2
13:48 22.6 °F 17.4 °F 30.30 in SSW 4.0 mph 4.0 mph 80% 0.00 in 218 W/m2
13:54 22.5 °F 17.3 °F 30.29 in WSW 3.0 mph 5.0 mph 80% 0.00 in 185 W/m2
14:00 22.5 °F 17.3 °F 30.29 in NW 2.0 mph 2.0 mph 80% 0.00 in 214 W/m2
14:06 22.5 °F 17.0 °F 30.28 in WSW 2.0 mph 3.0 mph 79% 0.00 in 260 W/m2
14:12 22.5 °F 17.0 °F 30.28 in West 3.0 mph 6.0 mph 79% 0.00 in 243 W/m2
14:18 22.5 °F 16.4 °F 30.28 in West 3.0 mph 6.0 mph 77% 0.00 in 186 W/m2
14:24 22.4 °F 16.6 °F 30.28 in WNW 2.0 mph 3.0 mph 78% 0.00 in 202 W/m2
14:30 22.4 °F 16.6 °F 30.28 in West 2.0 mph 2.0 mph 78% 0.00 in 227 W/m2
14:36 22.5 °F 16.7 °F 30.28 in WSW 1.0 mph 3.0 mph 78% 0.00 in 202 W/m2
14:42 22.6 °F 16.8 °F 30.27 in West 2.0 mph 3.0 mph 78% 0.00 in 264 W/m2
14:48 22.8 °F 17.0 °F 30.28 in WSW 2.0 mph 6.0 mph 78% 0.00 in 199 W/m2
14:54 22.7 °F 16.6 °F 30.28 in WSW 2.0 mph 3.0 mph 77% 0.00 in 179 W/m2
15:00 22.7 °F 16.6 °F 30.28 in WSW 2.0 mph 2.0 mph 77% 0.00 in 171 W/m2
15:06 22.6 °F 16.5 °F 30.28 in WSW 3.0 mph 4.0 mph 77% 0.00 in 179 W/m2
15:12 22.5 °F 16.7 °F 30.28 in SW 3.0 mph 3.0 mph 78% 0.00 in 142 W/m2
15:18 22.5 °F 16.7 °F 30.28 in SSW 3.0 mph 4.0 mph 78% 0.00 in 139 W/m2
15:24 22.5 °F 17.0 °F 30.28 in South 2.0 mph 3.0 mph 79% 0.00 in 148 W/m2
15:30 22.5 °F 17.0 °F 30.28 in South 2.0 mph 2.0 mph 79% 0.00 in 200 W/m2
15:36 22.8 °F 17.3 °F 30.28 in SW 2.0 mph 7.0 mph 79% 0.00 in 162 W/m2
15:44 22.4 °F 16.3 °F 30.28 in SW 4.0 mph 4.0 mph 77% 0.00 in 142 W/m2
15:50 22.6 °F 16.5 °F 30.28 in WSW 3.0 mph 3.0 mph 77% 0.00 in 188 W/m2
15:56 22.8 °F 16.7 °F 30.28 in West 2.0 mph 3.0 mph 77% 0.00 in 190 W/m2
16:02 22.8 °F 16.1 °F 30.28 in SW 2.0 mph 7.0 mph 75% 0.00 in 109 W/m2
16:08 22.6 °F 15.9 °F 30.29 in WSW 3.0 mph 7.0 mph 75% 0.00 in 105 W/m2
16:14 22.4 °F 15.7 °F 30.29 in West 3.0 mph 5.0 mph 75% 0.00 in 88 W/m2
16:20 22.4 °F 15.7 °F 30.29 in WSW 3.0 mph 4.0 mph 75% 0.00 in 93 W/m2
16:26 22.3 °F 15.3 °F 30.29 in SW 2.0 mph 4.0 mph 74% 0.00 in 63 W/m2
16:32 22.2 °F 15.2 °F 30.30 in SW 2.0 mph 2.0 mph 74% 0.00 in 54 W/m2
16:38 22.2 °F 15.2 °F 30.29 in WSW 1.0 mph 2.0 mph 74% 0.00 in 42 W/m2
16:44 22.2 °F 15.2 °F 30.29 in WSW 2.0 mph 3.0 mph 74% 0.00 in 37 W/m2
16:50 22.2 °F 15.5 °F 30.29 in WSW 1.0 mph 1.0 mph 75% 0.00 in 37 W/m2
16:56 22.2 °F 15.2 °F 30.29 in WSW 2.0 mph 4.0 mph 74% 0.00 in 35 W/m2
17:02 22.2 °F 15.2 °F 30.29 in WSW 1.0 mph 2.0 mph 74% 0.00 in 23 W/m2
17:08 22.0 °F 15.0 °F 30.29 in WSW 1.0 mph 5.0 mph 74% 0.00 in 19 W/m2
17:14 21.9 °F 14.9 °F 30.29 in WSW 1.0 mph 1.0 mph 74% 0.00 in 12 W/m2
17:20 21.8 °F 14.8 °F 30.30 in WSW 1.0 mph 1.0 mph 74% 0.00 in 7 W/m2
17:26 21.8 °F 14.8 °F 30.30 in WSW 1.0 mph 3.0 mph 74% 0.00 in 0 W/m2
17:32 21.8 °F 15.1 °F 30.30 in Calm   1.0 mph 75% 0.00 in 0 W/m2
17:38 21.7 °F 14.7 °F 30.30 in West 1.0 mph 1.0 mph 74% 0.00 in 0 W/m2
17:44 21.7 °F 15.0 °F 30.30 in West 1.0 mph 1.0 mph 75% 0.00 in 0 W/m2
17:50 21.6 °F 14.9 °F 30.31 in Calm   2.0 mph 75% 0.00 in 0 W/m2
17:56 21.6 °F 14.6 °F 30.31 in WSW 1.0 mph 3.0 mph 74% 0.00 in 0 W/m2
18:02 21.6 °F 14.9 °F 30.32 in WSW 1.0 mph 2.0 mph 75% 0.00 in 0 W/m2
18:08 21.7 °F 14.7 °F 30.32 in West 2.0 mph 3.0 mph 74% 0.00 in 0 W/m2
18:14 21.8 °F 14.8 °F 30.32 in West 3.0 mph 4.0 mph 74% 0.00 in 0 W/m2
18:20 21.8 °F 15.1 °F 30.32 in West 3.0 mph 3.0 mph 75% 0.00 in 0 W/m2
18:26 21.8 °F 15.1 °F 30.33 in WSW 2.0 mph 5.0 mph 75% 0.00 in 0 W/m2
18:32 21.7 °F 15.3 °F 30.33 in WNW 3.0 mph 8.0 mph 76% 0.00 in 0 W/m2
18:38 21.5 °F 15.7 °F 30.33 in SW 5.0 mph 8.0 mph 78% 0.00 in 0 W/m2
18:44 21.3 °F 15.8 °F 30.33 in West 4.0 mph 7.0 mph 79% 0.00 in 0 W/m2
18:50 21.1 °F 15.9 °F 30.34 in West 3.0 mph 4.0 mph 80% 0.00 in 0 W/m2
18:56 21.0 °F 15.5 °F 30.34 in West 4.0 mph 7.0 mph 79% 0.00 in 0 W/m2
19:02 20.8 °F 15.3 °F 30.34 in WSW 4.0 mph 4.0 mph 79% 0.00 in 0 W/m2
19:08 20.5 °F 14.7 °F 30.35 in West 4.0 mph 4.0 mph 78% 0.00 in 0 W/m2
19:14 20.2 °F 14.1 °F 30.35 in West 4.0 mph 4.0 mph 77% 0.00 in 0 W/m2
19:20 20.0 °F 13.6 °F 30.35 in WSW 4.0 mph 4.0 mph 76% 0.00 in 0 W/m2
19:26 19.9 °F 13.6 °F 30.35 in WSW 3.0 mph 4.0 mph 76% 0.00 in 0 W/m2
19:32 19.7 °F 13.7 °F 30.35 in WSW 2.0 mph 3.0 mph 77% 0.00 in 0 W/m2
19:38 19.5 °F 13.5 °F 30.35 in SW 3.0 mph 5.0 mph 77% 0.00 in 0 W/m2
19:44 19.3 °F 13.3 °F 30.35 in WSW 3.0 mph 3.0 mph 77% 0.00 in 0 W/m2
19:50 19.0 °F 12.7 °F 30.35 in WNW 3.0 mph 3.0 mph 76% 0.00 in 0 W/m2
19:56 18.7 °F 12.1 °F 30.35 in WSW 4.0 mph 7.0 mph 75% 0.00 in 0 W/m2
20:02 18.5 °F 11.9 °F 30.35 in SW 4.0 mph 4.0 mph 75% 0.00 in 0 W/m2
20:08 18.3 °F 11.7 °F 30.35 in WSW 4.0 mph 7.0 mph 75% 0.00 in 0 W/m2
20:14 18.1 °F 11.2 °F 30.36 in WSW 3.0 mph 6.0 mph 74% 0.00 in 0 W/m2
20:20 18.0 °F 11.1 °F 30.36 in SSW 3.0 mph 3.0 mph 74% 0.00 in 0 W/m2
20:26 17.9 °F 11.0 °F 30.36 in West 4.0 mph 7.0 mph 74% 0.00 in 0 W/m2
20:32 17.8 °F 11.2 °F 30.36 in WSW 4.0 mph 10.0 mph 75% 0.00 in 0 W/m2
20:38 17.8 °F 10.9 °F 30.36 in WSW 3.0 mph 10.0 mph 74% 0.00 in 0 W/m2
20:44 17.7 °F 10.8 °F 30.36 in West 2.0 mph 4.0 mph 74% 0.00 in 0 W/m2
20:50 17.5 °F 10.9 °F 30.36 in West 3.0 mph 3.0 mph 75% 0.00 in 0 W/m2
20:56 17.5 °F 10.9 °F 30.37 in SW 3.0 mph 3.0 mph 75% 0.00 in 0 W/m2
21:02 17.3 °F 10.7 °F 30.37 in SSW 3.0 mph 4.0 mph 75% 0.00 in 0 W/m2
21:08 17.3 °F 10.7 °F 30.37 in SSW 4.0 mph 8.0 mph 75% 0.00 in 0 W/m2
21:14 17.4 °F 10.8 °F 30.37 in SW 4.0 mph 7.0 mph 75% 0.00 in 0 W/m2
21:20 17.3 °F 10.7 °F 30.38 in SW 4.0 mph 4.0 mph 75% 0.00 in 0 W/m2
21:26 17.2 °F 10.6 °F 30.38 in SSW 3.0 mph 7.0 mph 75% 0.00 in 0 W/m2
21:32 17.2 °F 10.6 °F 30.38 in West 4.0 mph 4.0 mph 75% 0.00 in 0 W/m2
21:38 17.1 °F 10.5 °F 30.38 in WSW 4.0 mph 6.0 mph 75% 0.00 in 0 W/m2
21:44 17.1 °F 10.8 °F 30.38 in SW 5.0 mph 8.0 mph 76% 0.00 in 0 W/m2
21:50 17.2 °F 10.9 °F 30.39 in WSW 5.0 mph 5.0 mph 76% 0.00 in 0 W/m2
21:56 17.1 °F 10.8 °F 30.40 in West 5.0 mph 7.0 mph 76% 0.00 in 0 W/m2
22:02 17.1 °F 10.8 °F 30.40 in West 4.0 mph 5.0 mph 76% 0.00 in 0 W/m2
22:08 17.1 °F 10.8 °F 30.40 in WSW 4.0 mph 5.0 mph 76% 0.00 in 0 W/m2
22:14 17.1 °F 10.8 °F 30.40 in SW 4.0 mph 4.0 mph 76% 0.00 in 0 W/m2
22:20 17.0 °F 10.7 °F 30.40 in WSW 4.0 mph 4.0 mph 76% 0.00 in 0 W/m2
22:26 16.9 °F 10.6 °F 30.40 in WSW 4.0 mph 5.0 mph 76% 0.00 in 0 W/m2
22:32 16.8 °F 10.5 °F 30.40 in WSW 3.0 mph 3.0 mph 76% 0.00 in 0 W/m2
22:38 16.6 °F 10.3 °F 30.40 in WSW 2.0 mph 3.0 mph 76% 0.00 in 0 W/m2
22:44 16.7 °F 10.7 °F 30.40 in WSW 3.0 mph 5.0 mph 77% 0.00 in 0 W/m2
22:50 16.6 °F 10.6 °F 30.41 in WSW 3.0 mph 3.0 mph 77% 0.00 in 0 W/m2
22:56 16.6 °F 10.6 °F 30.41 in WSW 3.0 mph 6.0 mph 77% 0.00 in 0 W/m2
23:02 16.5 °F 10.5 °F 30.41 in WSW 3.0 mph 6.0 mph 77% 0.00 in 0 W/m2
23:08 16.4 °F 10.4 °F 30.41 in WSW 3.0 mph 6.0 mph 77% 0.00 in 0 W/m2
23:14 16.2 °F 10.3 °F 30.41 in WSW 2.0 mph 3.0 mph 77% 0.00 in 0 W/m2
23:20 16.0 °F 10.1 °F 30.41 in WSW 2.0 mph 4.0 mph 77% 0.00 in 0 W/m2
23:26 15.8 °F 9.9 °F 30.41 in WSW 2.0 mph 4.0 mph 77% 0.00 in 0 W/m2
23:32 15.7 °F 9.8 °F 30.41 in WSW 2.0 mph 4.0 mph 77% 0.00 in 0 W/m2
23:38 15.6 °F 9.7 °F 30.41 in SW 3.0 mph 4.0 mph 77% 0.00 in 0 W/m2
23:44 15.6 °F 9.7 °F 30.41 in WSW 2.0 mph 3.0 mph 77% 0.00 in 0 W/m2
23:50 15.6 °F 9.7 °F 30.41 in WSW 2.0 mph 4.0 mph 77% 0.00 in 0 W/m2
23:56 15.5 °F 9.6 °F 30.41 in WSW 2.0 mph 4.0 mph 77% 0.00 in 0 W/m2
Country Meadow, Clay, NY, USA
Compliments of Weather Underground - 2 mb